createdAt,value
2023-01-03T00:02:39.453Z,7.50
2023-01-03T00:05:42.637Z,5.00
2023-01-03T00:08:44.978Z,6.28
2023-01-03T00:12:07.936Z,3.03
2023-01-03T00:15:10.665Z,2.83
2023-01-03T00:18:12.255Z,2.25
2023-01-03T00:21:13.796Z,2.55
2023-01-03T00:24:15.612Z,2.47
2023-01-03T00:27:17.392Z,3.80
2023-01-03T00:30:18.946Z,3.80
2023-01-03T00:33:20.571Z,2.90
2023-01-03T00:36:22.061Z,2.83
2023-01-03T00:39:23.734Z,2.67
2023-01-03T00:42:25.292Z,4.15
2023-01-03T00:45:28.979Z,3.90
2023-01-03T00:48:34.441Z,3.95
2023-01-03T00:51:38.172Z,3.85
2023-01-03T00:54:39.677Z,3.50
2023-01-03T00:57:41.294Z,3.63
2023-01-03T01:00:42.869Z,3.55
2023-01-03T01:03:47.432Z,3.30
2023-01-03T01:06:52.235Z,4.00
2023-01-03T01:09:53.742Z,3.90
2023-01-03T01:12:55.904Z,3.88
2023-01-03T01:16:06.923Z,3.33
2023-01-03T01:19:08.443Z,3.15
2023-01-03T01:22:11.685Z,2.92
2023-01-03T01:25:13.309Z,3.37
2023-01-03T01:28:14.935Z,2.90
2023-01-03T01:31:19.498Z,3.30
2023-01-03T01:34:21.297Z,2.45
2023-01-03T01:37:22.873Z,2.72
2023-01-03T01:40:24.353Z,2.20
2023-01-03T01:43:44.708Z,2.40
2023-01-03T01:46:46.302Z,2.50
2023-01-03T01:49:52.222Z,2.20
2023-01-03T01:52:59.901Z,2.35
2023-01-03T01:56:07.816Z,2.90
2023-01-03T01:59:11.319Z,2.85
2023-01-03T02:02:17.151Z,2.20
2023-01-03T02:05:20.841Z,2.45
2023-01-03T02:08:22.556Z,2.08
2023-01-03T02:11:29.785Z,2.92
2023-01-03T02:14:49.683Z,3.22
2023-01-03T02:18:00.012Z,2.13
2023-01-03T02:21:20.033Z,2.10
2023-01-03T02:25:14.860Z,2.67
2023-01-03T02:28:41.004Z,1.95
2023-01-03T02:32:12.397Z,2.08
2023-01-03T02:35:25.062Z,1.75
2023-01-03T02:38:32.607Z,2.40
2023-01-03T02:41:44.440Z,2.10
2023-01-03T02:45:05.853Z,2.40
2023-01-03T02:48:15.791Z,1.95
2023-01-03T02:51:40.155Z,3.00
2023-01-03T02:54:49.807Z,2.75
2023-01-03T02:57:56.299Z,2.65
2023-01-03T03:01:02.071Z,3.00
2023-01-03T03:04:06.863Z,2.95
2023-01-03T03:07:15.610Z,2.72
2023-01-03T03:10:35.811Z,2.50
2023-01-03T03:13:43.932Z,2.50
2023-01-03T03:16:50.147Z,3.00
2023-01-03T03:20:15.980Z,2.38
2023-01-03T03:23:39.865Z,2.45
2023-01-03T03:26:44.863Z,2.40
2023-01-03T03:29:46.969Z,2.78
2023-01-03T03:32:53.190Z,2.95
2023-01-03T03:36:04.157Z,2.90
2023-01-03T03:39:28.683Z,3.08
2023-01-03T03:43:09.980Z,2.95
2023-01-03T03:46:29.723Z,2.85
2023-01-03T03:49:39.659Z,2.70
2023-01-03T03:52:46.626Z,2.92
2023-01-03T03:55:54.123Z,3.40
2023-01-03T03:58:59.981Z,3.00
2023-01-03T04:02:05.055Z,2.90
2023-01-03T04:05:11.022Z,2.88
2023-01-03T04:08:13.182Z,3.28
2023-01-03T04:11:17.261Z,2.83
2023-01-03T04:14:18.913Z,2.85
2023-01-03T04:17:20.481Z,3.35
2023-01-03T04:20:22.000Z,3.10
2023-01-03T04:23:24.302Z,3.15
2023-01-03T04:26:25.822Z,3.08
2023-01-03T04:29:27.354Z,3.38
2023-01-03T04:32:28.975Z,3.47
2023-01-03T04:35:31.962Z,3.53
2023-01-03T04:38:33.523Z,3.08
2023-01-03T04:41:35.031Z,3.53
2023-01-03T04:44:36.516Z,3.30
2023-01-03T04:47:38.081Z,2.63
2023-01-03T04:50:39.788Z,3.30
2023-01-03T04:53:41.255Z,2.88
2023-01-03T04:56:42.765Z,3.05
2023-01-03T04:59:44.370Z,2.63
2023-01-03T05:02:45.895Z,2.88
2023-01-03T05:05:47.500Z,2.72
2023-01-03T05:08:50.111Z,3.10
2023-01-03T05:11:51.610Z,3.50
2023-01-03T05:14:53.338Z,2.75
2023-01-03T05:17:54.923Z,2.08
2023-01-03T05:21:15.083Z,2.80
2023-01-03T05:24:35.168Z,2.60
2023-01-03T05:27:36.713Z,2.95
2023-01-03T05:30:38.163Z,3.40
2023-01-03T05:33:40.963Z,3.00
2023-01-03T05:36:42.612Z,2.95
2023-01-03T05:39:44.136Z,3.83
2023-01-03T05:42:45.684Z,2.80
2023-01-03T05:45:52.216Z,3.15
2023-01-03T05:48:53.870Z,3.40
2023-01-03T05:51:55.775Z,3.85
2023-01-03T05:54:57.322Z,3.40
2023-01-03T05:57:59.062Z,4.22
2023-01-03T06:01:08.413Z,3.80
2023-01-03T06:04:10.132Z,3.22
2023-01-03T06:07:11.740Z,3.38
2023-01-03T06:10:13.386Z,3.50
2023-01-03T06:13:14.908Z,4.63
2023-01-03T06:16:50.709Z,4.03
2023-01-03T06:19:52.321Z,5.07
2023-01-03T06:22:54.806Z,4.45
2023-01-03T06:25:56.357Z,4.30
2023-01-03T06:28:59.267Z,4.20
2023-01-03T06:32:06.889Z,3.85
2023-01-03T06:35:11.455Z,3.97
2023-01-03T06:38:13.064Z,3.60
2023-01-03T06:41:15.924Z,4.05
2023-01-03T06:44:17.590Z,3.85
2023-01-03T06:47:42.253Z,4.07
2023-01-03T06:54:04.700Z,4.57
2023-01-03T06:57:06.345Z,4.45
2023-01-03T07:00:08.541Z,4.45
2023-01-03T07:03:11.749Z,4.45
2023-01-03T07:06:14.066Z,4.25
2023-01-03T07:09:15.975Z,5.32
2023-01-03T07:12:39.137Z,4.93
2023-01-03T07:15:45.071Z,4.72
2023-01-03T07:18:54.779Z,5.07
2023-01-03T07:21:56.958Z,4.60
2023-01-03T07:24:58.567Z,4.80
2023-01-03T07:28:05.767Z,4.80
2023-01-03T07:31:08.125Z,4.80
2023-01-03T07:34:10.136Z,4.93
2023-01-03T07:37:11.726Z,5.40
2023-01-03T07:40:13.336Z,5.68
2023-01-03T07:43:33.658Z,5.25
2023-01-03T07:46:35.447Z,4.75
2023-01-03T07:49:40.806Z,4.47
2023-01-03T07:52:46.180Z,4.60
2023-01-03T07:55:47.791Z,4.28
2023-01-03T07:58:51.876Z,4.28
2023-01-03T08:01:54.091Z,4.22
2023-01-03T08:04:55.701Z,5.07
2023-01-03T08:07:57.257Z,5.03
2023-01-03T08:11:18.057Z,4.95
2023-01-03T08:14:25.343Z,4.57
2023-01-03T08:17:27.942Z,4.68
2023-01-03T08:20:29.796Z,4.68
2023-01-03T08:23:31.379Z,4.53
2023-01-03T08:26:33.117Z,5.75
2023-01-03T08:29:34.669Z,5.25
2023-01-03T08:33:24.576Z,7.43
2023-01-03T08:36:31.627Z,8.30
2023-01-03T08:39:58.079Z,7.05
2023-01-03T08:42:59.751Z,5.15
2023-01-03T08:46:03.541Z,4.72
2023-01-03T08:49:05.357Z,4.53
2023-01-03T08:52:07.136Z,4.45
2023-01-03T08:55:09.357Z,5.22
2023-01-03T08:58:10.952Z,4.20
2023-01-03T09:01:12.809Z,4.90
2023-01-03T09:04:14.506Z,4.28
2023-01-03T09:07:16.175Z,4.97
2023-01-03T09:10:17.644Z,4.90
2023-01-03T09:13:19.156Z,4.55
2023-01-03T09:16:20.694Z,4.50
2023-01-03T09:19:22.590Z,4.28
2023-01-03T09:22:24.150Z,4.30
2023-01-03T09:25:25.663Z,4.40
2023-01-03T09:28:27.331Z,4.30
2023-01-03T09:31:32.636Z,4.82
2023-01-03T09:34:34.722Z,4.28
2023-01-03T09:37:36.333Z,4.32
2023-01-03T09:40:44.156Z,4.65
2023-01-03T09:43:48.445Z,4.93
2023-01-03T09:46:50.098Z,9.82
2023-01-03T09:53:57.869Z,5.80
2023-01-03T09:57:21.802Z,7.10
2023-01-03T10:01:03.531Z,5.82
2023-01-03T10:04:11.388Z,5.85
2023-01-03T10:07:43.352Z,6.10
2023-01-03T10:11:06.307Z,6.38
2023-01-03T10:14:25.946Z,5.55
2023-01-03T10:17:51.293Z,5.97
2023-01-03T10:21:26.159Z,6.82
2023-01-03T10:24:32.965Z,7.53
2023-01-03T10:27:44.914Z,6.50
2023-01-03T10:31:08.095Z,6.50
2023-01-03T10:34:12.117Z,7.38
2023-01-03T10:37:17.815Z,6.90
2023-01-03T10:40:19.524Z,7.18
2023-01-03T10:43:39.190Z,7.40
2023-01-03T10:46:50.514Z,6.22
2023-01-03T10:49:58.519Z,6.20
2023-01-03T10:53:06.032Z,6.00
2023-01-03T10:56:08.032Z,5.20
2023-01-03T10:59:18.052Z,5.38
2023-01-03T11:02:20.039Z,5.82
2023-01-03T11:05:26.841Z,5.32
2023-01-03T11:08:37.091Z,5.85
2023-01-03T11:11:42.516Z,5.40
2023-01-03T11:14:56.226Z,5.53
2023-01-03T11:18:02.655Z,4.93
2023-01-03T11:21:18.275Z,6.18
2023-01-03T11:24:40.782Z,5.10
2023-01-03T11:28:16.832Z,5.50
2023-01-03T11:31:40.580Z,5.47
2023-01-03T11:35:25.736Z,4.77
2023-01-03T11:38:27.401Z,4.50
2023-01-03T11:41:36.523Z,4.30
2023-01-03T11:45:19.962Z,4.53
2023-01-03T11:48:50.465Z,4.70
2023-01-03T11:52:22.178Z,5.90
2023-01-03T11:56:05.277Z,5.47
2023-01-03T11:59:13.736Z,5.93
2023-01-03T12:02:30.343Z,5.68
2023-01-03T12:05:34.638Z,5.13
2023-01-03T12:08:48.278Z,5.05
2023-01-03T12:12:11.044Z,4.05
2023-01-03T12:15:24.679Z,4.95
2023-01-03T12:18:42.998Z,4.05
2023-01-03T12:21:51.589Z,4.38
2023-01-03T12:25:05.077Z,4.18
2023-01-03T12:28:13.283Z,3.72
2023-01-03T12:31:31.122Z,3.47
2023-01-03T12:34:42.641Z,3.83
2023-01-03T12:37:47.558Z,3.20
2023-01-03T12:41:17.758Z,2.92
2023-01-03T12:44:30.128Z,2.30
2023-01-03T12:47:38.800Z,2.20
2023-01-03T12:50:51.449Z,1.70
2023-01-03T12:54:04.958Z,1.95
2023-01-03T12:57:37.440Z,2.87
2023-01-03T13:01:06.240Z,2.25
2023-01-03T13:04:12.429Z,2.28
2023-01-03T13:07:19.130Z,2.92
2023-01-03T13:10:25.411Z,2.72
2023-01-03T13:13:32.450Z,2.95
2023-01-03T13:16:37.159Z,3.80
2023-01-03T13:19:52.062Z,4.30
2023-01-03T13:23:22.743Z,4.00
2023-01-03T13:26:28.775Z,4.47
2023-01-03T13:29:33.293Z,4.95
2023-01-03T13:32:49.142Z,5.25
2023-01-03T13:35:59.928Z,5.40
2023-01-03T13:39:01.535Z,5.38
2023-01-03T13:42:03.250Z,5.35
2023-01-03T13:45:10.805Z,5.32
2023-01-03T13:48:22.606Z,5.47
2023-01-03T13:51:33.880Z,5.97
2023-01-03T13:54:56.096Z,6.10
2023-01-03T13:57:57.629Z,5.38
2023-01-03T14:01:06.104Z,5.78
2023-01-03T14:04:29.831Z,4.47
2023-01-03T14:08:14.393Z,4.38
2023-01-03T14:11:39.959Z,3.85
2023-01-03T14:14:42.162Z,4.43
2023-01-03T14:17:48.293Z,4.35
2023-01-03T14:20:53.756Z,3.47
2023-01-03T14:24:00.618Z,3.80
2023-01-03T14:27:10.099Z,3.30
2023-01-03T14:30:24.099Z,3.55
2023-01-03T14:33:31.294Z,3.03
2023-01-03T14:36:45.960Z,3.47
2023-01-03T14:39:59.592Z,3.50
2023-01-03T14:43:04.909Z,5.05
2023-01-03T14:46:10.866Z,4.43
2023-01-03T14:49:20.745Z,3.60
2023-01-03T14:52:37.757Z,4.13
2023-01-03T14:55:40.433Z,4.05
2023-01-03T14:58:47.185Z,3.88
2023-01-03T15:01:49.297Z,3.72
2023-01-03T15:04:56.023Z,4.45
2023-01-03T15:08:09.225Z,4.15
2023-01-03T15:11:13.917Z,4.88
2023-01-03T15:14:15.768Z,4.78
2023-01-03T15:17:25.384Z,3.83
2023-01-03T15:20:38.701Z,4.13
2023-01-03T15:23:47.999Z,3.50
2023-01-03T15:27:00.846Z,2.90
2023-01-03T15:30:14.598Z,2.28
2023-01-03T15:36:31.707Z,3.50
2023-01-03T15:39:48.796Z,3.20
2023-01-03T15:43:10.100Z,3.80
2023-01-03T15:46:15.236Z,3.50
2023-01-03T15:49:21.328Z,4.00
2023-01-03T15:52:22.941Z,4.25
2023-01-03T15:55:24.863Z,3.72
2023-01-03T15:58:36.996Z,4.45
2023-01-03T16:01:38.691Z,5.07
2023-01-03T16:04:40.447Z,4.60
2023-01-03T16:07:42.405Z,4.80
2023-01-03T16:10:43.987Z,4.85
2023-01-03T16:13:49.708Z,5.75
2023-01-03T16:16:54.145Z,5.15
2023-01-03T16:19:56.885Z,5.05
2023-01-03T16:23:01.725Z,8.25
2023-01-03T16:26:04.344Z,8.65
2023-01-03T16:29:05.890Z,6.93
2023-01-03T16:32:37.868Z,7.82
2023-01-03T16:39:27.328Z,10.68
2023-01-03T16:42:29.088Z,11.25
2023-01-03T16:45:30.983Z,10.23
2023-01-03T16:48:52.271Z,9.88
2023-01-03T16:51:58.047Z,9.13
2023-01-03T16:55:30.184Z,8.85
2023-01-03T16:58:31.798Z,9.77
2023-01-03T17:01:33.389Z,10.48
2023-01-03T17:04:35.134Z,10.35
2023-01-03T17:07:36.937Z,9.02
2023-01-03T17:10:40.144Z,8.77
2023-01-03T17:13:44.659Z,8.43
2023-01-03T17:16:47.379Z,7.78
2023-01-03T17:20:06.266Z,8.35
2023-01-03T17:23:09.129Z,7.53
2023-01-03T17:26:38.575Z,8.65
2023-01-03T17:29:40.270Z,10.68
2023-01-03T17:32:41.975Z,13.25
2023-01-03T17:35:45.767Z,33.88
2023-01-03T17:38:47.464Z,30.08
2023-01-03T17:42:10.001Z,13.20
2023-01-03T17:45:30.942Z,7.68
2023-01-03T17:48:50.718Z,9.15
2023-01-03T17:51:56.395Z,10.85
2023-01-03T17:54:58.277Z,9.23
2023-01-03T17:58:02.958Z,10.27
2023-01-03T18:01:08.096Z,11.20
2023-01-03T18:04:12.887Z,15.65
2023-01-03T18:07:21.185Z,12.05
2023-01-03T18:10:38.708Z,13.05
2023-01-03T18:13:46.271Z,12.18
2023-01-03T18:16:54.709Z,21.25
2023-01-03T18:20:01.520Z,26.63
2023-01-03T18:23:03.100Z,15.38
2023-01-03T18:26:08.178Z,19.55
2023-01-03T18:29:15.097Z,19.15
2023-01-03T18:32:31.420Z,15.95
2023-01-03T18:35:37.698Z,11.55
2023-01-03T18:38:41.540Z,10.07
2023-01-03T18:41:43.647Z,9.30
2023-01-03T18:44:45.357Z,10.15
2023-01-03T18:47:46.978Z,11.02
2023-01-03T18:50:57.472Z,11.07
2023-01-03T18:53:59.799Z,10.38
2023-01-03T18:57:01.731Z,9.60
2023-01-03T19:00:04.014Z,9.23
2023-01-03T19:03:20.437Z,12.30
2023-01-03T19:06:30.286Z,8.85
2023-01-03T19:09:32.719Z,7.50
2023-01-03T19:12:38.894Z,8.90
2023-01-03T19:15:48.089Z,16.45
2023-01-03T19:19:03.959Z,19.98
2023-01-03T19:22:25.643Z,17.65
2023-01-03T19:25:28.730Z,11.98
2023-01-03T19:28:30.260Z,12.35
2023-01-03T19:31:42.627Z,13.60
2023-01-03T19:34:44.380Z,15.55
2023-01-03T19:37:46.751Z,13.40
2023-01-03T19:40:49.220Z,15.35
2023-01-03T19:43:50.866Z,14.13
2023-01-03T19:46:52.560Z,17.15
2023-01-03T19:49:54.971Z,13.32
2023-01-03T19:52:57.142Z,14.65
2023-01-03T19:55:59.055Z,12.05
2023-01-03T19:59:03.287Z,11.02
2023-01-03T20:02:36.343Z,11.15
2023-01-03T20:05:38.019Z,11.38
2023-01-03T20:12:47.852Z,9.75
2023-01-03T20:15:52.116Z,12.05
2023-01-03T20:18:56.743Z,11.77
2023-01-03T20:21:58.715Z,16.42
2023-01-03T20:25:00.457Z,15.13
2023-01-03T20:28:02.187Z,14.80
2023-01-03T20:31:06.571Z,21.80
2023-01-03T20:34:09.813Z,10.43
2023-01-03T20:37:19.126Z,10.27
2023-01-03T20:40:24.373Z,10.93
2023-01-03T20:43:26.097Z,16.05
2023-01-03T20:46:32.923Z,9.35
2023-01-03T20:49:41.198Z,7.90
2023-01-03T20:52:42.717Z,8.15
2023-01-03T20:55:44.345Z,6.88
2023-01-03T20:58:45.845Z,7.13
2023-01-03T21:01:49.064Z,6.88
2023-01-03T21:04:50.947Z,7.13
2023-01-03T21:08:11.269Z,6.18
2023-01-03T21:11:13.468Z,6.55
2023-01-03T21:14:15.034Z,6.78
2023-01-03T21:17:16.710Z,5.78
2023-01-03T21:20:21.731Z,5.90
2023-01-03T21:23:23.672Z,5.80
2023-01-03T21:26:25.686Z,6.00
2023-01-03T21:29:27.783Z,6.25
2023-01-03T21:32:29.365Z,6.10
2023-01-03T21:35:31.096Z,5.40
2023-01-03T21:38:32.711Z,5.43
2023-01-03T21:41:55.735Z,5.22
2023-01-03T21:44:57.263Z,5.80
2023-01-03T21:47:59.759Z,5.40
2023-01-03T21:51:04.585Z,5.25
2023-01-03T21:54:08.038Z,4.65
2023-01-03T21:57:09.890Z,4.97
2023-01-03T22:00:12.750Z,5.15
2023-01-03T22:03:34.743Z,4.70
2023-01-03T22:06:37.142Z,4.88
2023-01-03T22:09:57.363Z,4.72
2023-01-03T22:13:02.012Z,4.07
2023-01-03T22:16:08.434Z,4.68
2023-01-03T22:19:09.996Z,5.18
2023-01-03T22:22:11.586Z,4.22
2023-01-03T22:25:23.591Z,4.38
2023-01-03T22:28:25.253Z,4.18
2023-01-03T22:31:26.901Z,4.55
2023-01-03T22:34:28.615Z,5.05
2023-01-03T22:37:30.277Z,4.00
2023-01-03T22:40:31.873Z,4.13
2023-01-03T22:43:34.285Z,3.70
2023-01-03T22:46:35.857Z,3.78
2023-01-03T22:49:37.723Z,3.88
2023-01-03T22:52:40.119Z,3.20
2023-01-03T22:55:42.666Z,3.50
2023-01-03T22:58:45.413Z,3.70
2023-01-03T23:01:47.218Z,3.67
2023-01-03T23:04:48.885Z,3.65
2023-01-03T23:07:50.825Z,3.10
2023-01-03T23:11:12.310Z,3.85
2023-01-03T23:14:16.988Z,3.70
2023-01-03T23:17:44.814Z,3.97
2023-01-03T23:20:49.044Z,3.70
2023-01-03T23:23:50.833Z,3.15
2023-01-03T23:26:52.971Z,3.95
2023-01-03T23:29:55.022Z,3.50
2023-01-03T23:32:56.501Z,4.10
2023-01-03T23:36:09.497Z,3.88
2023-01-03T23:39:17.825Z,4.35
2023-01-03T23:42:19.378Z,4.18
2023-01-03T23:45:20.966Z,4.85
2023-01-03T23:48:22.560Z,3.97
2023-01-03T23:51:24.676Z,4.03
2023-01-03T23:54:26.192Z,5.00
2023-01-03T23:57:27.693Z,4.20
